Aviation Digital Data Service (ADDS)

Output produced by METARs form (1642 UTC 16 June 2019)
found at http://www.aviationweather.gov/metar/data/
 
METAR text: FSIA 161600Z VRB05KT 9999 FEW020CB 28/24 Q1011 NOSIG
Conditions at: FSIA (SEYCHELLES INTL , SC) observed 1600 UTC 16 June 2019
Temperature: 28.0°C (82°F)
Dewpoint: 24.0°C (75°F) [RH = 79%]
Pressure (altimeter): 29.85 inches Hg (1011.0 mb)
Winds: variable direction winds at 6 MPH (5 knots; 2.6 m/s)
Visibility: 6 or more miles (10+ km)
Ceiling: at least 12,000 feet AGL
Clouds: few clouds at 2000 feet AGL
Weather: no significant weather observed at this time

METAR text: FSIA 161500Z 15005KT 090V220 9999 FEW018CB BKN023 27/24 Q1011 NOSIG
Conditions at: FSIA (SEYCHELLES INTL , SC) observed 1500 UTC 16 June 2019
Temperature: 27.0°C (81°F)
Dewpoint: 24.0°C (75°F) [RH = 84%]
Pressure (altimeter): 29.85 inches Hg (1011.0 mb)
Winds: from the SSE (150 degrees) at 6 MPH (5 knots; 2.6 m/s)
Visibility: 6 or more miles (10+ km)
Ceiling: 2300 feet AGL
Clouds: few clouds at 1800 feet AGL
broken clouds at 2300 feet AGL
Weather: no significant weather observed at this time

METAR text: FSIA 161400Z 16005KT 130V200 9999 FEW017CB BKN022 27/23 Q1011 NOSIG
Conditions at: FSIA (SEYCHELLES INTL , SC) observed 1400 UTC 16 June 2019
Temperature: 27.0°C (81°F)
Dewpoint: 23.0°C (73°F) [RH = 79%]
Pressure (altimeter): 29.85 inches Hg (1011.0 mb)
Winds: from the SSE (160 degrees) at 6 MPH (5 knots; 2.6 m/s)
Visibility: 6 or more miles (10+ km)
Ceiling: 2200 feet AGL
Clouds: few clouds at 1700 feet AGL
broken clouds at 2200 feet AGL
Weather: no significant weather observed at this time

METAR text: FSIA 161300Z 12006KT 060V210 9999 FEW016CB BKN022 26/24 Q1011 RERA TEMPO 8000 SHRA
Conditions at: FSIA (SEYCHELLES INTL , SC) observed 1300 UTC 16 June 2019
Temperature: 26.0°C (79°F)
Dewpoint: 24.0°C (75°F) [RH = 89%]
Pressure (altimeter): 29.85 inches Hg (1011.0 mb)
Winds: from the ESE (120 degrees) at 7 MPH (6 knots; 3.1 m/s)
Visibility: 6 or more miles (10+ km)
Ceiling: 2200 feet AGL
Clouds: few clouds at 1600 feet AGL
broken clouds at 2200 feet AGL
Weather: no significant weather observed at this time

METAR text: FSIA 161232Z 14011G25KT 090V190 8000 RA FEW018CB BKN023 26/24 Q1010 RERA TEMPO 5000
Conditions at: FSIA (SEYCHELLES INTL , SC) observed 1232 UTC 16 June 2019
Temperature: 26.0°C (79°F)
Dewpoint: 24.0°C (75°F) [RH = 89%]
Pressure (altimeter): 29.82 inches Hg (1010.0 mb)
Winds: from the SE (140 degrees) at 13 MPH (11 knots; 5.7 m/s)
gusting to 29 MPH (25 knots; 12.9 m/s)
Visibility: 5 miles ( 8 km)
Ceiling: 2300 feet AGL
Clouds: few clouds at 1800 feet AGL
broken clouds at 2300 feet AGL
Weather: RA  (moderate rain)

METAR text: FSIA 161200Z 14004KT 040V180 9999 FEW018CB BKN023 28/24 Q1010 RERA NOSIG
Conditions at: FSIA (SEYCHELLES INTL , SC) observed 1200 UTC 16 June 2019
Temperature: 28.0°C (82°F)
Dewpoint: 24.0°C (75°F) [RH = 79%]
Pressure (altimeter): 29.82 inches Hg (1010.0 mb)
Winds: from the SE (140 degrees) at 5 MPH (4 knots; 2.1 m/s)
Visibility: 6 or more miles (10+ km)
Ceiling: 2300 feet AGL
Clouds: few clouds at 1800 feet AGL
broken clouds at 2300 feet AGL
Weather: no significant weather observed at this time

METAR text: FSIA 161111Z 11005KT 040V150 8000 -RA FEW018CB BKN023 28/25 Q1010 TEMPO 5000
Conditions at: FSIA (SEYCHELLES INTL , SC) observed 1111 UTC 16 June 2019
Temperature: 28.0°C (82°F)
Dewpoint: 25.0°C (77°F) [RH = 84%]
Pressure (altimeter): 29.82 inches Hg (1010.0 mb)
Winds: from the ESE (110 degrees) at 6 MPH (5 knots; 2.6 m/s)
Visibility: 5 miles ( 8 km)
Ceiling: 2300 feet AGL
Clouds: few clouds at 1800 feet AGL
broken clouds at 2300 feet AGL
Weather: -RA  (light rain)

METAR text: FSIA 161100Z 12006KT 050V210 9999 FEW018CB BKN023 29/24 Q1010 TEMPO 8000 SHRA
Conditions at: FSIA (SEYCHELLES INTL , SC) observed 1100 UTC 16 June 2019
Temperature: 29.0°C (84°F)
Dewpoint: 24.0°C (75°F) [RH = 74%]
Pressure (altimeter): 29.82 inches Hg (1010.0 mb)
Winds: from the ESE (120 degrees) at 7 MPH (6 knots; 3.1 m/s)
Visibility: 6 or more miles (10+ km)
Ceiling: 2300 feet AGL
Clouds: few clouds at 1800 feet AGL
broken clouds at 2300 feet AGL
Weather: no significant weather observed at this time

METAR text: FSIA 161000Z 09006G16KT 010V170 9999 SCT023 FEW024CB 30/24 Q1010 NOSIG
Conditions at: FSIA (SEYCHELLES INTL , SC) observed 1000 UTC 16 June 2019
Temperature: 30.0°C (86°F)
Dewpoint: 24.0°C (75°F) [RH = 70%]
Pressure (altimeter): 29.82 inches Hg (1010.0 mb)
Winds: from the E (90 degrees) at 7 MPH (6 knots; 3.1 m/s)
gusting to 18 MPH (16 knots; 8.2 m/s)
Visibility: 6 or more miles (10+ km)
Ceiling: at least 12,000 feet AGL
Clouds: scattered clouds at 2300 feet AGL
few clouds at 2400 feet AGL
Weather: no significant weather observed at this time

METAR text: FSIA 160900Z 15006KT 080V240 9999 FEW020CB BKN023 31/25 Q1011 NOSIG
Conditions at: FSIA (SEYCHELLES INTL , SC) observed 0900 UTC 16 June 2019
Temperature: 31.0°C (88°F)
Dewpoint: 25.0°C (77°F) [RH = 71%]
Pressure (altimeter): 29.85 inches Hg (1011.0 mb)
Winds: from the SSE (150 degrees) at 7 MPH (6 knots; 3.1 m/s)
Visibility: 6 or more miles (10+ km)
Ceiling: 2300 feet AGL
Clouds: few clouds at 2000 feet AGL
broken clouds at 2300 feet AGL
Weather: no significant weather observed at this time

METAR text: FSIA 160800Z 13011G21KT 100V180 9999 FEW020CB BKN023 29/24 Q1012 NOSIG
Conditions at: FSIA (SEYCHELLES INTL , SC) observed 0800 UTC 16 June 2019
Temperature: 29.0°C (84°F)
Dewpoint: 24.0°C (75°F) [RH = 74%]
Pressure (altimeter): 29.88 inches Hg (1012.0 mb)
Winds: from the SE (130 degrees) at 13 MPH (11 knots; 5.7 m/s)
gusting to 24 MPH (21 knots; 10.8 m/s)
Visibility: 6 or more miles (10+ km)
Ceiling: 2300 feet AGL
Clouds: few clouds at 2000 feet AGL
broken clouds at 2300 feet AGL
Weather: no significant weather observed at this time

METAR text: FSIA 160700Z 13009G22KT 060V200 9999 SCT021 FEW024CB 29/24 Q1013 NOSIG
Conditions at: FSIA (SEYCHELLES INTL , SC) observed 0700 UTC 16 June 2019
Temperature: 29.0°C (84°F)
Dewpoint: 24.0°C (75°F) [RH = 74%]
Pressure (altimeter): 29.91 inches Hg (1013.0 mb)
Winds: from the SE (130 degrees) at 10 MPH (9 knots; 4.6 m/s)
gusting to 25 MPH (22 knots; 11.3 m/s)
Visibility: 6 or more miles (10+ km)
Ceiling: at least 12,000 feet AGL
Clouds: scattered clouds at 2100 feet AGL
few clouds at 2400 feet AGL
Weather: no significant weather observed at this time

METAR text: FSIA 160600Z 12008KT 070V190 9999 FEW020CB SCT024 29/25 Q1013 NOSIG
Conditions at: FSIA (SEYCHELLES INTL , SC) observed 0600 UTC 16 June 2019
Temperature: 29.0°C (84°F)
Dewpoint: 25.0°C (77°F) [RH = 79%]
Pressure (altimeter): 29.91 inches Hg (1013.0 mb)
Winds: from the ESE (120 degrees) at 9 MPH (8 knots; 4.1 m/s)
Visibility: 6 or more miles (10+ km)
Ceiling: at least 12,000 feet AGL
Clouds: few clouds at 2000 feet AGL
scattered clouds at 2400 feet AGL
Weather: no significant weather observed at this time

METAR text: FSIA 160500Z VRB07KT 9999 FEW019CB SCT023 29/24 Q1012 NOSIG
Conditions at: FSIA (SEYCHELLES INTL , SC) observed 0500 UTC 16 June 2019
Temperature: 29.0°C (84°F)
Dewpoint: 24.0°C (75°F) [RH = 74%]
Pressure (altimeter): 29.88 inches Hg (1012.0 mb)
Winds: variable direction winds at 8 MPH (7 knots; 3.6 m/s)
Visibility: 6 or more miles (10+ km)
Ceiling: at least 12,000 feet AGL
Clouds: few clouds at 1900 feet AGL
scattered clouds at 2300 feet AGL
Weather: no significant weather observed at this time

METAR text: FSIA 160400Z 12008KT 090V170 9999 FEW018CB SCT024 29/25 Q1011 NOSIG
Conditions at: FSIA (SEYCHELLES INTL , SC) observed 0400 UTC 16 June 2019
Temperature: 29.0°C (84°F)
Dewpoint: 25.0°C (77°F) [RH = 79%]
Pressure (altimeter): 29.85 inches Hg (1011.0 mb)
Winds: from the ESE (120 degrees) at 9 MPH (8 knots; 4.1 m/s)
Visibility: 6 or more miles (10+ km)
Ceiling: at least 12,000 feet AGL
Clouds: few clouds at 1800 feet AGL
scattered clouds at 2400 feet AGL
Weather: no significant weather observed at this time

METAR text: FSIA 160300Z 16006KT 080V200 9999 SCT022 28/25 Q1011 NOSIG
Conditions at: FSIA (SEYCHELLES INTL , SC) observed 0300 UTC 16 June 2019
Temperature: 28.0°C (82°F)
Dewpoint: 25.0°C (77°F) [RH = 84%]
Pressure (altimeter): 29.85 inches Hg (1011.0 mb)
Winds: from the SSE (160 degrees) at 7 MPH (6 knots; 3.1 m/s)
Visibility: 6 or more miles (10+ km)
Ceiling: at least 12,000 feet AGL
Clouds: scattered clouds at 2200 feet AGL
Weather: no significant weather observed at this time

METAR text: FSIA 160200Z 15005KT 110V220 9999 FEW020CB SCT022 28/25 Q1010 NOSIG
Conditions at: FSIA (SEYCHELLES INTL , SC) observed 0200 UTC 16 June 2019
Temperature: 28.0°C (82°F)
Dewpoint: 25.0°C (77°F) [RH = 84%]
Pressure (altimeter): 29.82 inches Hg (1010.0 mb)
Winds: from the SSE (150 degrees) at 6 MPH (5 knots; 2.6 m/s)
Visibility: 6 or more miles (10+ km)
Ceiling: at least 12,000 feet AGL
Clouds: few clouds at 2000 feet AGL
scattered clouds at 2200 feet AGL
Weather: no significant weather observed at this time

METAR text: FSIA 160100Z 17005KT 100V250 9999 SCT024 28/25 Q1010 NOSIG
Conditions at: FSIA (SEYCHELLES INTL , SC) observed 0100 UTC 16 June 2019
Temperature: 28.0°C (82°F)
Dewpoint: 25.0°C (77°F) [RH = 84%]
Pressure (altimeter): 29.82 inches Hg (1010.0 mb)
Winds: from the S (170 degrees) at 6 MPH (5 knots; 2.6 m/s)
Visibility: 6 or more miles (10+ km)
Ceiling: at least 12,000 feet AGL
Clouds: scattered clouds at 2400 feet AGL
Weather: no significant weather observed at this time

METAR text: FSIA 160000Z 13010KT 110V170 9999 FEW016CB BKN018 28/25 Q1009 TEMPO 8000 -SHRA
Conditions at: FSIA (SEYCHELLES INTL , SC) observed 0000 UTC 16 June 2019
Temperature: 28.0°C (82°F)
Dewpoint: 25.0°C (77°F) [RH = 84%]
Pressure (altimeter): 29.79 inches Hg (1009.0 mb)
Winds: from the SE (130 degrees) at 12 MPH (10 knots; 5.1 m/s)
Visibility: 6 or more miles (10+ km)
Ceiling: 1800 feet AGL
Clouds: few clouds at 1600 feet AGL
broken clouds at 1800 feet AGL
Weather: no significant weather observed at this time

METAR text: FSIA 152300Z 14007KT 090V190 9999 FEW020CB SCT022 27/25 Q1010 NOSIG
Conditions at: FSIA (SEYCHELLES INTL , SC) observed 2300 UTC 15 June 2019
Temperature: 27.0°C (81°F)
Dewpoint: 25.0°C (77°F) [RH = 89%]
Pressure (altimeter): 29.82 inches Hg (1010.0 mb)
Winds: from the SE (140 degrees) at 8 MPH (7 knots; 3.6 m/s)
Visibility: 6 or more miles (10+ km)
Ceiling: at least 12,000 feet AGL
Clouds: few clouds at 2000 feet AGL
scattered clouds at 2200 feet AGL
Weather: no significant weather observed at this time

METAR text: FSIA 152200Z 15010KT 120V200 9999 FEW018CB SCT020 27/24 Q1010 NOSIG
Conditions at: FSIA (SEYCHELLES INTL , SC) observed 2200 UTC 15 June 2019
Temperature: 27.0°C (81°F)
Dewpoint: 24.0°C (75°F) [RH = 84%]
Pressure (altimeter): 29.82 inches Hg (1010.0 mb)
Winds: from the SSE (150 degrees) at 12 MPH (10 knots; 5.1 m/s)
Visibility: 6 or more miles (10+ km)
Ceiling: at least 12,000 feet AGL
Clouds: few clouds at 1800 feet AGL
scattered clouds at 2000 feet AGL
Weather: no significant weather observed at this time

METAR text: FSIA 152100Z 15011G22KT 110V190 9999 FEW018CB SCT020 28/25 Q1011 TEMPO -SHRA
Conditions at: FSIA (SEYCHELLES INTL , SC) observed 2100 UTC 15 June 2019
Temperature: 28.0°C (82°F)
Dewpoint: 25.0°C (77°F) [RH = 84%]
Pressure (altimeter): 29.85 inches Hg (1011.0 mb)
Winds: from the SSE (150 degrees) at 13 MPH (11 knots; 5.7 m/s)
gusting to 25 MPH (22 knots; 11.3 m/s)
Visibility: 6 or more miles (10+ km)
Ceiling: at least 12,000 feet AGL
Clouds: few clouds at 1800 feet AGL
scattered clouds at 2000 feet AGL
Weather: no significant weather observed at this time

METAR text: FSIA 152000Z 19009KT 140V220 9999 FEW024 28/24 Q1011 NOSIG
Conditions at: FSIA (SEYCHELLES INTL , SC) observed 2000 UTC 15 June 2019
Temperature: 28.0°C (82°F)
Dewpoint: 24.0°C (75°F) [RH = 79%]
Pressure (altimeter): 29.85 inches Hg (1011.0 mb)
Winds: from the S (190 degrees) at 10 MPH (9 knots; 4.6 m/s)
Visibility: 6 or more miles (10+ km)
Ceiling: at least 12,000 feet AGL
Clouds: few clouds at 2400 feet AGL
Weather: no significant weather observed at this time

METAR text: FSIA 151900Z 17007KT 9999 FEW024 28/24 Q1011 NOSIG
Conditions at: FSIA (SEYCHELLES INTL , SC) observed 1900 UTC 15 June 2019
Temperature: 28.0°C (82°F)
Dewpoint: 24.0°C (75°F) [RH = 79%]
Pressure (altimeter): 29.85 inches Hg (1011.0 mb)
Winds: from the S (170 degrees) at 8 MPH (7 knots; 3.6 m/s)
Visibility: 6 or more miles (10+ km)
Ceiling: at least 12,000 feet AGL
Clouds: few clouds at 2400 feet AGL
Weather: no significant weather observed at this time

METAR text: FSIA 151800Z 17005KT 130V220 9999 FEW026 28/24 Q1012 NOSIG
Conditions at: FSIA (SEYCHELLES INTL , SC) observed 1800 UTC 15 June 2019
Temperature: 28.0°C (82°F)
Dewpoint: 24.0°C (75°F) [RH = 79%]
Pressure (altimeter): 29.88 inches Hg (1012.0 mb)
Winds: from the S (170 degrees) at 6 MPH (5 knots; 2.6 m/s)
Visibility: 6 or more miles (10+ km)
Ceiling: at least 12,000 feet AGL
Clouds: few clouds at 2600 feet AGL
Weather: no significant weather observed at this time

METAR text: FSIA 151700Z 15004KT 130V210 9999 FEW024 28/23 Q1012 NOSIG
Conditions at: FSIA (SEYCHELLES INTL , SC) observed 1700 UTC 15 June 2019
Temperature: 28.0°C (82°F)
Dewpoint: 23.0°C (73°F) [RH = 74%]
Pressure (altimeter): 29.88 inches Hg (1012.0 mb)
Winds: from the SSE (150 degrees) at 5 MPH (4 knots; 2.1 m/s)
Visibility: 6 or more miles (10+ km)
Ceiling: at least 12,000 feet AGL
Clouds: few clouds at 2400 feet AGL
Weather: no significant weather observed at this time

METAR text: FSIA 151600Z 17008KT 140V200 9999 FEW024 28/24 Q1011 NOSIG
Conditions at: FSIA (SEYCHELLES INTL , SC) observed 1600 UTC 15 June 2019
Temperature: 28.0°C (82°F)
Dewpoint: 24.0°C (75°F) [RH = 79%]
Pressure (altimeter): 29.85 inches Hg (1011.0 mb)
Winds: from the S (170 degrees) at 9 MPH (8 knots; 4.1 m/s)
Visibility: 6 or more miles (10+ km)
Ceiling: at least 12,000 feet AGL
Clouds: few clouds at 2400 feet AGL
Weather: no significant weather observed at this time

METAR text: FSIA 151500Z VRB05KT 9999 FEW022 28/23 Q1010 NOSIG
Conditions at: FSIA (SEYCHELLES INTL , SC) observed 1500 UTC 15 June 2019
Temperature: 28.0°C (82°F)
Dewpoint: 23.0°C (73°F) [RH = 74%]
Pressure (altimeter): 29.82 inches Hg (1010.0 mb)
Winds: variable direction winds at 6 MPH (5 knots; 2.6 m/s)
Visibility: 6 or more miles (10+ km)
Ceiling: at least 12,000 feet AGL
Clouds: few clouds at 2200 feet AGL
Weather: no significant weather observed at this time

METAR text: FSIA 151400Z 15006KT 110V200 9999 FEW018 SCT025 27/22 Q1009 NOSIG
Conditions at: FSIA (SEYCHELLES INTL , SC) observed 1400 UTC 15 June 2019
Temperature: 27.0°C (81°F)
Dewpoint: 22.0°C (72°F) [RH = 74%]
Pressure (altimeter): 29.79 inches Hg (1009.0 mb)
Winds: from the SSE (150 degrees) at 7 MPH (6 knots; 3.1 m/s)
Visibility: 6 or more miles (10+ km)
Ceiling: at least 12,000 feet AGL
Clouds: few clouds at 1800 feet AGL
scattered clouds at 2500 feet AGL
Weather: no significant weather observed at this time

METAR text: FSIA 151300Z 23003KT 200V260 9999 FEW019CB SCT030 26/24 Q1009 NOSIG
Conditions at: FSIA (SEYCHELLES INTL , SC) observed 1300 UTC 15 June 2019
Temperature: 26.0°C (79°F)
Dewpoint: 24.0°C (75°F) [RH = 89%]
Pressure (altimeter): 29.79 inches Hg (1009.0 mb)
Winds: from the SW (230 degrees) at 3 MPH (3 knots; 1.5 m/s)
Visibility: 6 or more miles (10+ km)
Ceiling: at least 12,000 feet AGL
Clouds: few clouds at 1900 feet AGL
scattered clouds at 3000 feet AGL
Weather: no significant weather observed at this time

METAR text: FSIA 151200Z VRB02KT 9999 FEW018CB SCT025 26/24 Q1009 NOSIG
Conditions at: FSIA (SEYCHELLES INTL , SC) observed 1200 UTC 15 June 2019
Temperature: 26.0°C (79°F)
Dewpoint: 24.0°C (75°F) [RH = 89%]
Pressure (altimeter): 29.79 inches Hg (1009.0 mb)
Winds: variable direction winds at 2 MPH (2 knots; 1.0 m/s)
Visibility: 6 or more miles (10+ km)
Ceiling: at least 12,000 feet AGL
Clouds: few clouds at 1800 feet AGL
scattered clouds at 2500 feet AGL
Weather: no significant weather observed at this time

METAR text: FSIA 151100Z 12006KT 9999 FEW012 FEW015CB SCT023 26/23 Q1009 NOSIG
Conditions at: FSIA (SEYCHELLES INTL , SC) observed 1100 UTC 15 June 2019
Temperature: 26.0°C (79°F)
Dewpoint: 23.0°C (73°F) [RH = 84%]
Pressure (altimeter): 29.79 inches Hg (1009.0 mb)
Winds: from the ESE (120 degrees) at 7 MPH (6 knots; 3.1 m/s)
Visibility: 6 or more miles (10+ km)
Ceiling: at least 12,000 feet AGL
Clouds: few clouds at 1200 feet AGL
few clouds at 1500 feet AGL
scattered clouds at 2300 feet AGL
Weather: no significant weather observed at this time

METAR text: FSIA 151000Z 09007KT 9999 -RA SCT010 FEW015CB BKN025 26/25 Q1010 NOSIG
Conditions at: FSIA (SEYCHELLES INTL , SC) observed 1000 UTC 15 June 2019
Temperature: 26.0°C (79°F)
Dewpoint: 25.0°C (77°F) [RH = 94%]
Pressure (altimeter): 29.82 inches Hg (1010.0 mb)
Winds: from the E (90 degrees) at 8 MPH (7 knots; 3.6 m/s)
Visibility: 6 or more miles (10+ km)
Ceiling: 2500 feet AGL
Clouds: scattered clouds at 1000 feet AGL
few clouds at 1500 feet AGL
broken clouds at 2500 feet AGL
Weather: -RA  (light rain)

METAR text: FSIA 150900Z 08017KT 9999 SCT010 FEW015CB BKN040 27/25 Q1011 NOSIG
Conditions at: FSIA (SEYCHELLES INTL , SC) observed 0900 UTC 15 June 2019
Temperature: 27.0°C (81°F)
Dewpoint: 25.0°C (77°F) [RH = 89%]
Pressure (altimeter): 29.85 inches Hg (1011.0 mb)
Winds: from the E (80 degrees) at 20 MPH (17 knots; 8.7 m/s)
Visibility: 6 or more miles (10+ km)
Ceiling: 4000 feet AGL
Clouds: scattered clouds at 1000 feet AGL
few clouds at 1500 feet AGL
broken clouds at 4000 feet AGL
Weather: no significant weather observed at this time

METAR text: FSIA 150800Z 13008KT 9999 FEW018CB SCT025 28/24 Q1011 NOSIG
Conditions at: FSIA (SEYCHELLES INTL , SC) observed 0800 UTC 15 June 2019
Temperature: 28.0°C (82°F)
Dewpoint: 24.0°C (75°F) [RH = 79%]
Pressure (altimeter): 29.85 inches Hg (1011.0 mb)
Winds: from the SE (130 degrees) at 9 MPH (8 knots; 4.1 m/s)
Visibility: 6 or more miles (10+ km)
Ceiling: at least 12,000 feet AGL
Clouds: few clouds at 1800 feet AGL
scattered clouds at 2500 feet AGL
Weather: no significant weather observed at this time

METAR text: FSIA 150700Z 13010KT 9999 FEW018CB SCT025 28/24 Q1011 NOSIG
Conditions at: FSIA (SEYCHELLES INTL , SC) observed 0700 UTC 15 June 2019
Temperature: 28.0°C (82°F)
Dewpoint: 24.0°C (75°F) [RH = 79%]
Pressure (altimeter): 29.85 inches Hg (1011.0 mb)
Winds: from the SE (130 degrees) at 12 MPH (10 knots; 5.1 m/s)
Visibility: 6 or more miles (10+ km)
Ceiling: at least 12,000 feet AGL
Clouds: few clouds at 1800 feet AGL
scattered clouds at 2500 feet AGL
Weather: no significant weather observed at this time

METAR text: FSIA 150600Z 14007KT 9999 FEW018CB SCT025 28/24 Q1012 NOSIG
Conditions at: FSIA (SEYCHELLES INTL , SC) observed 0600 UTC 15 June 2019
Temperature: 28.0°C (82°F)
Dewpoint: 24.0°C (75°F) [RH = 79%]
Pressure (altimeter): 29.88 inches Hg (1012.0 mb)
Winds: from the SE (140 degrees) at 8 MPH (7 knots; 3.6 m/s)
Visibility: 6 or more miles (10+ km)
Ceiling: at least 12,000 feet AGL
Clouds: few clouds at 1800 feet AGL
scattered clouds at 2500 feet AGL
Weather: no significant weather observed at this time

METAR text: FSIA 150500Z 13006KT 9999 FEW020CB SCT030 27/24 Q1012 NOSIG
Conditions at: FSIA (SEYCHELLES INTL , SC) observed 0500 UTC 15 June 2019
Temperature: 27.0°C (81°F)
Dewpoint: 24.0°C (75°F) [RH = 84%]
Pressure (altimeter): 29.88 inches Hg (1012.0 mb)
Winds: from the SE (130 degrees) at 7 MPH (6 knots; 3.1 m/s)
Visibility: 6 or more miles (10+ km)
Ceiling: at least 12,000 feet AGL
Clouds: few clouds at 2000 feet AGL
scattered clouds at 3000 feet AGL
Weather: no significant weather observed at this time

Forecast for: FSIA (SEYCHELLES INTL , SC)
Text: TAF FSIA 161100Z 1612/1712 16010G20KT 9999 FEW018CB BKN023
Forecast period: 1200 UTC 16 June 2019 to 1200 UTC 17 June 2019
Forecast type: FROM: standard forecast or significant change
Winds: from the SSE (160 degrees) at 12 MPH (10 knots; 5.1 m/s)
gusting to 23 MPH (20 knots; 10.3 m/s)
Visibility: 6 or more miles 10+ km)
Ceiling: 2300 feet AGL
Clouds: few clouds at 1800 feet AGL
broken clouds at 2300 feet AGL
Weather: no significant weather forecast for this period
Text: TEMPO 1612/1618 8000 SHRA FEW016CB BKN022
Forecast period: 1200 to 1800 UTC 16 June 2019
Forecast type: TEMPORARY: The following changes expected for less than half the time period
Visibility: 5 miles (8 km)
Ceiling: 2200 feet AGL
Clouds: few clouds at 1600 feet AGL
broken clouds at 2200 feet AGL
Weather: SHRA  (rain showers)
Text: PROB40
Forecast period: 0200 to 0800 UTC 17 June 2019
Forecast type: TEMPORARY: The following changes expected for less than half the time period
Visibility: missing
Ceiling: 2100 feet AGL
Clouds: few clouds at 1500 feet AGL
broken clouds at 2100 feet AGL
Weather: -SHRA  (light rain showers)